N1DT WSSL-WSSL

Flight info

Callsign N1DT
Flight time 0h 18m
Altitude 1000
Route CCTS
Aircraft DA40/L-VGD/C

Departure

Time 2026-05-07 15:30
Airport Seletar Airport (WSSL)

Arrival

Time 2026-05-07 15:48
Airport Seletar Airport (WSSL)
Time Latitude Longitude Altitude Speed Heading
2026-05-07 15:17 1.41424 103.86825 49 ft 0 kts 33°
2026-05-07 15:24 1.41426 103.86826 49 ft 4 kts 32°
2026-05-07 15:24 1.41441 103.86835 49 ft 6 kts 32°
2026-05-07 15:24 1.41466 103.86823 49 ft 6 kts 278°
2026-05-07 15:24 1.41437 103.86786 49 ft 7 kts 213°
2026-05-07 15:25 1.41398 103.86760 49 ft 7 kts 214°
2026-05-07 15:25 1.41358 103.86734 49 ft 8 kts 213°
2026-05-07 15:25 1.41296 103.86694 49 ft 13 kts 213°
2026-05-07 15:25 1.41205 103.86634 49 ft 18 kts 212°
2026-05-07 15:26 1.41099 103.86565 49 ft 17 kts 212°
2026-05-07 15:26 1.41004 103.86503 49 ft 15 kts 213°
2026-05-07 15:26 1.40918 103.86448 49 ft 14 kts 212°
2026-05-07 15:26 1.40842 103.86397 49 ft 13 kts 210°
2026-05-07 15:27 1.40788 103.86358 49 ft 8 kts 246°
2026-05-07 15:27 1.40806 103.86311 49 ft 7 kts 303°
2026-05-07 15:27 1.40816 103.86296 49 ft 0 kts 302°
2026-05-07 15:28 1.40817 103.86295 49 ft 3 kts 303°
2026-05-07 15:29 1.40845 103.86252 48 ft 14 kts 303°
2026-05-07 15:29 1.40938 103.86270 48 ft 32 kts 34°
2026-05-07 15:29 1.41262 103.86482 50 ft 77 kts 32°
2026-05-07 15:29 1.41735 103.86778 246 ft 80 kts 31°
2026-05-07 15:30 1.42234 103.87077 412 ft 89 kts 31°
2026-05-07 15:30 1.42774 103.87388 630 ft 91 kts 27°
2026-05-07 15:30 1.43379 103.87553 787 ft 93 kts 348°
2026-05-07 15:30 1.43861 103.87132 904 ft 98 kts 287°
2026-05-07 15:31 1.43699 103.86488 1002 ft 102 kts 231°
2026-05-07 15:31 1.43176 103.85985 1020 ft 105 kts 221°
2026-05-07 15:31 1.42570 103.85556 1017 ft 108 kts 211°
2026-05-07 15:31 1.41926 103.85168 994 ft 108 kts 211°
2026-05-07 15:32 1.41288 103.84793 990 ft 106 kts 210°
2026-05-07 15:32 1.40659 103.84443 1009 ft 102 kts 208°
2026-05-07 15:32 1.40019 103.84139 1000 ft 102 kts 197°
2026-05-07 15:32 1.39408 103.84362 940 ft 103 kts 119°
2026-05-07 15:33 1.39400 103.85003 789 ft 97 kts 67°
2026-05-07 15:33 1.39805 103.85524 459 ft 92 kts 46°
2026-05-07 15:33 1.40293 103.85841 279 ft 80 kts 39°
2026-05-07 15:33 1.40746 103.86144 129 ft 76 kts 38°
2026-05-07 15:34 1.41157 103.86415 50 ft 62 kts 33°
2026-05-07 15:34 1.41587 103.86689 157 ft 79 kts 32°
2026-05-07 15:34 1.42086 103.87013 269 ft 94 kts 33°
2026-05-07 15:34 1.42650 103.87380 456 ft 97 kts 32°
2026-05-07 15:35 1.43274 103.87452 647 ft 95 kts 337°
2026-05-07 15:35 1.43655 103.86937 783 ft 99 kts 274°
2026-05-07 15:35 1.43347 103.86303 823 ft 112 kts 225°
2026-05-07 15:35 1.42766 103.85771 887 ft 116 kts 221°
2026-05-07 15:36 1.42139 103.85252 948 ft 114 kts 218°
2026-05-07 15:36 1.41511 103.84786 1006 ft 110 kts 216°
2026-05-07 15:36 1.40869 103.84365 1000 ft 111 kts 212°
2026-05-07 15:36 1.40199 103.83986 999 ft 109 kts 207°
2026-05-07 15:37 1.39479 103.83804 991 ft 108 kts 168°
2026-05-07 15:37 1.38977 103.84300 874 ft 107 kts 103°
2026-05-07 15:37 1.39126 103.84951 661 ft 91 kts 52°
2026-05-07 15:37 1.39567 103.85362 459 ft 85 kts 34°
2026-05-07 15:38 1.40031 103.85680 332 ft 80 kts 31°
2026-05-07 15:38 1.40495 103.85976 191 ft 79 kts 33°
2026-05-07 15:38 1.40943 103.86271 69 ft 75 kts 34°
2026-05-07 15:38 1.41328 103.86525 50 ft 64 kts 36°
2026-05-07 15:39 1.41769 103.86807 163 ft 81 kts 32°
2026-05-07 15:39 1.42254 103.87115 353 ft 85 kts 31°
2026-05-07 15:39 1.42777 103.87418 556 ft 89 kts 28°
2026-05-07 15:39 1.43384 103.87535 706 ft 97 kts 340°
2026-05-07 15:40 1.43888 103.87089 883 ft 101 kts 291°
2026-05-07 15:40 1.43801 103.86381 992 ft 111 kts 237°
2026-05-07 15:40 1.43202 103.85870 1003 ft 118 kts 214°
2026-05-07 15:40 1.42508 103.85411 989 ft 123 kts 212°
2026-05-07 15:41 1.41779 103.84949 1020 ft 123 kts 211°
2026-05-07 15:41 1.41029 103.84535 1044 ft 121 kts 206°
2026-05-07 15:41 1.40265 103.84213 999 ft 123 kts 199°
2026-05-07 15:41 1.39451 103.83987 953 ft 122 kts 193°
2026-05-07 15:42 1.38758 103.84152 949 ft 103 kts 127°
2026-05-07 15:42 1.38732 103.84795 758 ft 93 kts 61°
2026-05-07 15:42 1.39203 103.85145 518 ft 80 kts 28°
2026-05-07 15:42 1.39646 103.85432 373 ft 74 kts 32°
2026-05-07 15:43 1.40069 103.85707 274 ft 72 kts 32°
2026-05-07 15:43 1.40510 103.85987 206 ft 79 kts 33°
2026-05-07 15:43 1.40978 103.86292 122 ft 81 kts 32°
2026-05-07 15:43 1.41510 103.86575 263 ft 88 kts 30°
2026-05-07 15:44 1.42073 103.86891 395 ft 99 kts 29°
2026-05-07 15:44 1.42701 103.87203 577 ft 101 kts 25°
2026-05-07 15:44 1.43353 103.87468 777 ft 103 kts
2026-05-07 15:44 1.44015 103.87258 966 ft 105 kts 314°
2026-05-07 15:45 1.44167 103.86544 996 ft 116 kts 249°
2026-05-07 15:45 1.43584 103.85992 1040 ft 119 kts 213°
2026-05-07 15:45 1.42880 103.85564 1039 ft 117 kts 210°
2026-05-07 15:45 1.42175 103.85148 1016 ft 118 kts 211°
2026-05-07 15:46 1.40776 103.84283 963 ft 118 kts 212°
2026-05-07 15:46 1.40075 103.83865 928 ft 113 kts 210°
2026-05-07 15:46 1.39418 103.83655 883 ft 93 kts 172°
2026-05-07 15:47 1.38981 103.84064 711 ft 90 kts 101°
2026-05-07 15:47 1.39122 103.84637 628 ft 83 kts 60°
2026-05-07 15:47 1.39437 103.85134 543 ft 85 kts 50°
2026-05-07 15:47 1.39869 103.85552 399 ft 86 kts 37°
2026-05-07 15:48 1.40349 103.85882 261 ft 82 kts 33°
2026-05-07 15:48 1.40804 103.86184 109 ft 76 kts 32°
2026-05-07 15:48 1.41198 103.86441 50 ft 52 kts 32°
2026-05-07 15:48 1.41391 103.86567 50 ft 26 kts 33°
2026-05-07 15:49 1.41528 103.86657 50 ft 15 kts 36°
2026-05-07 15:49 1.41533 103.86717 49 ft 10 kts 123°
2026-05-07 15:49 1.41502 103.86764 49 ft 1 kts 123°
2026-05-07 15:50 1.41500 103.86768 49 ft 3 kts 124°
2026-05-07 15:50 1.41467 103.86799 49 ft 8 kts 176°
2026-05-07 15:50 1.41433 103.86784 49 ft 4 kts 197°
2026-05-07 15:50 1.41413 103.86807 49 ft 5 kts 124°
2026-05-07 15:51 1.41425 103.86825 49 ft 0 kts 33°